Time;durP1;ratioP1;P1;durP2;ratioP2;P2;SDS_P1;SDS_P2;PMS_P1;PMS_P2;Temp;Humidity;BMP_temperature;BMP_pressure;BME280_temperature;BME280_humidity;BME280_pressure;Samples;Min_cycle;Max_cycle;Signal;HPM_P1;HPM_P2
2023/09/12 00:00:48;;;;;;;29.30;14.82;;;23.60;91.30;;;;;;5053155;28;20021;-79
2023/09/12 00:03:14;;;;;;;28.88;15.02;;;23.60;91.10;;;;;;5035735;28;20022;-79
2023/09/12 00:05:40;;;;;;;28.52;15.30;;;23.50;90.90;;;;;;5052229;28;20049;-79
2023/09/12 00:08:06;;;;;;;25.98;14.95;;;23.50;91.10;;;;;;5052059;28;20025;-79
2023/09/12 00:10:32;;;;;;;20.65;13.38;;;23.40;91.00;;;;;;5052250;28;20025;-79
2023/09/12 00:13:02;;;;;;;24.48;14.60;;;23.10;91.20;;;;;;5052137;28;20022;-79
2023/09/12 00:15:28;;;;;;;27.27;16.45;;;22.90;91.90;;;;;;5036058;28;20025;-79
2023/09/12 00:17:53;;;;;;;29.02;16.50;;;22.90;91.90;;;;;;5052986;28;20030;-79
2023/09/12 00:20:19;;;;;;;30.00;16.73;;;22.80;92.00;;;;;;5052007;28;20026;-79
2023/09/12 00:22:45;;;;;;;27.10;15.77;;;22.70;92.10;;;;;;5052802;28;20057;-79
2023/09/12 00:25:11;;;;;;;32.00;17.48;;;22.80;92.40;;;;;;5035681;28;20021;-79
2023/09/12 00:27:36;;;;;;;28.05;16.02;;;22.80;92.40;;;;;;5052144;28;20503;-79
2023/09/12 00:30:02;;;;;;;30.25;17.02;;;22.90;92.40;;;;;;5051891;28;20036;-79
2023/09/12 00:32:28;;;;;;;31.55;16.98;;;23.00;92.40;;;;;;5038062;28;20034;-79
2023/09/12 00:34:54;;;;;;;26.85;16.15;;;23.10;92.30;;;;;;5056760;28;20033;-79
2023/09/12 00:37:19;;;;;;;30.02;16.27;;;23.20;92.20;;;;;;5055876;28;20022;-79
2023/09/12 00:39:47;;;;;;;31.15;15.98;;;23.30;92.10;;;;;;5055878;28;20032;-79
2023/09/12 00:42:12;;;;;;;26.00;15.40;;;23.30;92.00;;;;;;5056710;28;20025;-79
2023/09/12 00:44:38;;;;;;;27.50;15.95;;;23.40;91.90;;;;;;5039235;28;20049;-79
2023/09/12 00:47:04;;;;;;;26.73;15.85;;;23.40;91.80;;;;;;5039046;28;20029;-79
2023/09/12 00:49:30;;;;;;;28.42;15.45;;;23.40;91.70;;;;;;5055622;28;20036;-79
2023/09/12 00:51:57;;;;;;;28.55;16.90;;;23.40;91.90;;;;;;5055472;28;20034;-79
2023/09/12 00:54:23;;;;;;;28.38;16.42;;;23.40;91.40;;;;;;5056468;28;20030;-79
2023/09/12 00:56:49;;;;;;;25.98;15.25;;;23.40;91.20;;;;;;5056576;28;20032;-79
2023/09/12 00:59:17;;;;;;;29.83;16.35;;;23.40;91.30;;;;;;5056386;28;20148;-79
2023/09/12 01:01:43;;;;;;;28.58;16.27;;;23.30;91.30;;;;;;5055323;28;20059;-79
2023/09/12 01:04:10;;;;;;;26.20;15.10;;;23.30;91.30;;;;;;5055288;28;20029;-79
2023/09/12 01:06:37;;;;;;;27.48;14.85;;;23.20;91.30;;;;;;5056258;28;20021;-79
2023/09/12 01:09:02;;;;;;;26.80;15.80;;;23.20;91.30;;;;;;5055187;28;20025;-79
2023/09/12 01:11:28;;;;;;;25.10;14.02;;;23.20;91.40;;;;;;5055146;28;20034;-79
2023/09/12 01:13:54;;;;;;;24.23;14.35;;;23.20;91.90;;;;;;5056126;28;20025;-79
2023/09/12 01:16:20;;;;;;;29.08;16.08;;;23.20;91.30;;;;;;5055128;28;20052;-79
2023/09/12 01:18:46;;;;;;;25.38;14.55;;;23.20;91.10;;;;;;5055142;28;20026;-79
2023/09/12 01:21:38;;;;;;;23.52;13.65;;;23.10;91.00;;;;;;5055040;28;20072;-79
2023/09/12 01:24:23;;;;;;;21.90;13.23;;;23.10;91.00;;;;;;5054971;28;20045;-79
2023/09/12 01:27:21;;;;;;;22.27;12.55;;;23.00;91.10;;;;;;5055953;28;20025;-79
2023/09/12 01:29:50;;;;;;;22.23;13.10;;;23.00;91.20;;;;;;5055936;28;20469;-78
2023/09/12 01:32:18;;;;;;;22.20;12.38;;;22.90;91.10;;;;;;5054681;28;20052;-79
2023/09/12 01:34:43;;;;;;;19.63;12.38;;;22.90;90.80;;;;;;5055677;28;20067;-79
2023/09/12 01:37:09;;;;;;;21.17;12.68;;;22.60;90.50;;;;;;5038228;28;20040;-79
2023/09/12 01:39:35;;;;;;;18.65;12.00;;;22.50;90.90;;;;;;5054759;28;20029;-78
2023/09/12 01:42:02;;;;;;;19.88;12.95;;;22.30;91.10;;;;;;5055610;28;20029;-78
2023/09/12 01:44:29;;;;;;;23.60;13.73;;;22.20;91.50;;;;;;5053845;28;20021;-79
2023/09/12 01:46:58;;;;;;;25.00;13.80;;;22.20;91.60;;;;;;5054615;28;20022;-79
2023/09/12 01:49:26;;;;;;;25.23;14.23;;;22.20;91.50;;;;;;5054493;28;20030;-79
2023/09/12 01:51:52;;;;;;;22.58;14.13;;;22.30;91.50;;;;;;5055344;28;20029;-79
2023/09/12 01:54:19;;;;;;;21.63;14.00;;;22.30;91.40;;;;;;5054443;28;20029;-79
2023/09/12 01:56:46;;;;;;;21.48;13.32;;;22.40;91.50;;;;;;5054503;28;20396;-79
2023/09/12 01:59:11;;;;;;;16.80;11.18;;;22.40;91.30;;;;;;5054273;28;20018;-79
2023/09/12 02:01:37;;;;;;;20.13;12.25;;;22.30;91.00;;;;;;5054310;28;20480;-79
2023/09/12 02:04:08;;;;;;;19.10;12.55;;;22.30;91.10;;;;;;5054156;28;20041;-79
2023/09/12 02:06:34;;;;;;;18.30;12.25;;;22.30;91.10;;;;;;5055187;28;20048;-79
2023/09/12 02:09:00;;;;;;;17.05;11.95;;;22.30;91.20;;;;;;5054145;28;20037;-79
2023/09/12 02:11:26;;;;;;;21.58;12.45;;;22.30;91.30;;;;;;5055003;28;20030;-79
2023/09/12 02:13:52;;;;;;;21.70;12.18;;;22.30;91.20;;;;;;5054154;28;20025;-78
2023/09/12 02:16:18;;;;;;;20.48;12.18;;;22.30;91.20;;;;;;5037451;28;20032;-79
2023/09/12 02:18:43;;;;;;;17.42;10.60;;;22.30;91.20;;;;;;5054177;28;20056;-79
2023/09/12 02:21:09;;;;;;;15.00;9.77;;;22.30;91.30;;;;;;5054858;28;20060;-79
2023/09/12 02:23:34;;;;;;;16.40;10.18;;;22.30;91.30;;;;;;5054653;28;20049;-78
2023/09/12 02:26:00;;;;;;;18.23;11.57;;;22.30;91.30;;;;;;5053727;28;20045;-79
2023/09/12 02:28:26;;;;;;;15.80;9.80;;;22.30;91.20;;;;;;5053847;28;20049;-78
2023/09/12 02:30:51;;;;;;;17.65;10.73;;;22.30;91.20;;;;;;5037088;28;20029;-78
2023/09/12 02:33:17;;;;;;;16.13;10.25;;;22.30;91.00;;;;;;5053562;28;20052;-79
2023/09/12 02:35:42;;;;;;;18.42;10.77;;;22.30;90.80;;;;;;5054525;28;20035;-79
2023/09/12 02:38:09;;;;;;;19.08;12.27;;;22.20;90.90;;;;;;5054673;28;20484;-79
2023/09/12 02:40:34;;;;;;;16.70;10.80;;;22.20;91.00;;;;;;5036913;28;20026;-78
2023/09/12 02:43:00;;;;;;;19.17;11.00;;;22.20;91.00;;;;;;5054569;28;20044;-79
2023/09/12 02:45:26;;;;;;;13.85;9.38;;;22.20;91.30;;;;;;5036875;28;20033;-78
2023/09/12 02:47:51;;;;;;;19.23;8.02;;;22.10;91.00;;;;;;5036888;28;20045;-78
2023/09/12 02:50:17;;;;;;;16.23;8.15;;;22.10;91.00;;;;;;5053381;28;20033;-79
2023/09/12 02:52:42;;;;;;;16.10;7.65;;;21.90;91.00;;;;;;5053278;28;20034;-79
2023/09/12 02:55:09;;;;;;;15.52;9.35;;;21.90;91.10;;;;;;5035655;28;20030;-78
2023/09/12 02:57:34;;;;;;;16.65;9.45;;;21.80;91.20;;;;;;5053134;28;20089;-79
2023/09/12 03:00:00;;;;;;;16.67;9.95;;;21.80;91.40;;;;;;5053201;28;20040;-78
2023/09/12 03:02:29;;;;;;;18.17;11.30;;;21.90;91.40;;;;;;5054059;28;20051;-78
2023/09/12 03:04:54;;;;;;;16.30;10.30;;;21.90;91.40;;;;;;5053106;28;20021;-78
2023/09/12 03:07:20;;;;;;;18.25;10.93;;;21.90;91.50;;;;;;5053961;28;20057;-78
2023/09/12 03:09:49;;;;;;;14.20;10.13;;;21.90;91.40;;;;;;5036483;28;20045;-78
2023/09/12 03:12:15;;;;;;;15.23;10.98;;;21.90;91.50;;;;;;5053850;28;20058;-78
2023/09/12 03:14:40;;;;;;;19.20;10.73;;;21.90;91.90;;;;;;5036423;28;20025;-78
2023/09/12 03:17:06;;;;;;;15.45;9.50;;;21.90;91.60;;;;;;5052957;28;20045;-79
2023/09/12 03:19:32;;;;;;;13.25;8.90;;;21.90;91.50;;;;;;5036276;28;20036;-79
2023/09/12 03:21:57;;;;;;;17.17;10.35;;;21.90;91.40;;;;;;5036073;28;20053;-79
2023/09/12 03:24:24;;;;;;;17.10;10.27;;;21.90;91.40;;;;;;5053684;28;20044;-79
2023/09/12 03:26:53;;;;;;;16.35;10.10;;;21.90;91.40;;;;;;5053605;28;20033;-79
2023/09/12 03:29:19;;;;;;;17.77;10.95;;;21.90;91.40;;;;;;5052690;28;20036;-79
2023/09/12 03:31:44;;;;;;;19.98;11.70;;;21.80;91.30;;;;;;5052467;28;20029;-79
2023/09/12 03:34:10;;;;;;;20.60;11.70;;;21.70;91.60;;;;;;5036017;28;20025;-79
2023/09/12 03:36:35;;;;;;;24.95;12.60;;;21.70;91.80;;;;;;5036053;28;20037;-79
2023/09/12 03:39:01;;;;;;;19.92;12.93;;;21.70;91.90;;;;;;5052563;28;20044;-79
2023/09/12 03:41:27;;;;;;;22.65;12.75;;;21.70;91.90;;;;;;5052531;28;20085;-78
2023/09/12 03:43:54;;;;;;;22.48;13.25;;;21.70;92.00;;;;;;5052507;28;20053;-79
2023/09/12 03:46:20;;;;;;;22.45;13.00;;;21.70;92.30;;;;;;5052426;28;20396;-79
2023/09/12 03:48:46;;;;;;;20.55;12.30;;;21.80;92.30;;;;;;5052435;28;20036;-79
2023/09/12 03:51:12;;;;;;;23.08;13.65;;;21.80;92.40;;;;;;5035772;28;20029;-79
2023/09/12 03:53:37;;;;;;;22.30;14.32;;;21.80;92.30;;;;;;5052343;28;20021;-79
2023/09/12 03:56:03;;;;;;;20.23;12.85;;;21.90;92.30;;;;;;5053246;28;20537;-79
2023/09/12 03:58:29;;;;;;;22.30;12.98;;;21.90;92.20;;;;;;5052280;28;20029;-79
2023/09/12 04:00:54;;;;;;;21.98;12.93;;;21.90;92.10;;;;;;5052273;28;20068;-79
2023/09/12 04:03:20;;;;;;;20.50;13.35;;;21.90;92.00;;;;;;5052228;28;20033;-79
2023/09/12 04:05:51;;;;;;;19.90;12.27;;;21.90;91.80;;;;;;5051784;28;20056;-79
2023/09/12 04:08:16;;;;;;;19.77;12.38;;;21.80;91.70;;;;;;5052234;28;20381;-79
2023/09/12 04:10:43;;;;;;;18.88;12.25;;;21.80;91.70;;;;;;5035661;28;20022;-79
2023/09/12 04:13:08;;;;;;;18.80;11.80;;;21.70;91.80;;;;;;5053048;28;20036;-79
2023/09/12 04:15:34;;;;;;;17.42;11.18;;;21.70;91.80;;;;;;5052066;28;20029;-79
2023/09/12 04:18:00;;;;;;;16.55;10.82;;;21.70;91.70;;;;;;5052132;28;20098;-79
2023/09/12 04:20:25;;;;;;;16.08;11.18;;;21.70;91.70;;;;;;5052081;28;20037;-79
2023/09/12 04:22:51;;;;;;;16.58;10.98;;;21.70;91.80;;;;;;5035400;28;20046;-79
2023/09/12 04:25:19;;;;;;;16.33;11.32;;;21.60;91.70;;;;;;5052969;28;20132;-79
2023/09/12 04:27:45;;;;;;;16.65;11.38;;;21.60;91.70;;;;;;5052907;28;20038;-79
2023/09/12 04:30:11;;;;;;;16.48;11.18;;;21.60;91.70;;;;;;5052944;28;20096;-78
2023/09/12 04:32:37;;;;;;;15.30;10.60;;;21.60;91.50;;;;;;5035406;28;20384;-79
2023/09/12 04:35:03;;;;;;;19.77;11.88;;;21.50;91.40;;;;;;5052781;28;20037;-78
2023/09/12 04:37:29;;;;;;;17.45;11.80;;;21.50;91.40;;;;;;5035457;28;20024;-79
2023/09/12 04:39:54;;;;;;;17.63;11.45;;;21.40;91.90;;;;;;5035281;28;20045;-79
2023/09/12 04:42:20;;;;;;;17.23;11.30;;;21.30;91.80;;;;;;5052818;28;20022;-79
2023/09/12 04:44:46;;;;;;;16.77;11.27;;;21.30;92.10;;;;;;5052824;28;20424;-79
2023/09/12 04:47:12;;;;;;;17.23;10.80;;;21.30;92.20;;;;;;5052758;28;20053;-79
2023/09/12 04:49:39;;;;;;;16.15;11.18;;;21.30;92.10;;;;;;5052747;28;20038;-79
2023/09/12 04:52:06;;;;;;;17.65;11.70;;;21.30;92.20;;;;;;5051716;28;20026;-79
2023/09/12 04:54:32;;;;;;;17.02;12.00;;;21.40;92.40;;;;;;5051734;28;20053;-79
2023/09/12 04:56:57;;;;;;;17.35;11.93;;;21.40;92.40;;;;;;5051810;28;20036;-79
2023/09/12 04:59:23;;;;;;;19.63;12.15;;;21.40;92.30;;;;;;5052637;28;20029;-79
2023/09/12 05:01:50;;;;;;;17.92;11.43;;;21.50;92.30;;;;;;5051682;28;20040;-79
2023/09/12 05:04:16;;;;;;;16.33;10.73;;;21.50;92.20;;;;;;5035242;28;20025;-79
2023/09/12 05:06:41;;;;;;;16.15;10.43;;;21.50;92.00;;;;;;5051709;28;20033;-79
2023/09/12 05:09:08;;;;;;;16.08;10.88;;;21.40;92.00;;;;;;5035087;28;20076;-79
2023/09/12 05:11:34;;;;;;;18.38;11.65;;;21.20;92.20;;;;;;5052455;28;20036;-79
2023/09/12 05:14:03;;;;;;;17.30;11.32;;;21.10;92.40;;;;;;5034994;28;20017;-79
2023/09/12 05:16:29;;;;;;;16.08;11.10;;;21.10;92.90;;;;;;5035319;28;20022;-79
2023/09/12 05:18:54;;;;;;;16.20;11.55;;;21.10;92.70;;;;;;5054073;28;20025;-78
2023/09/12 05:21:20;;;;;;;15.90;11.10;;;21.20;92.70;;;;;;5055849;28;20032;-78
2023/09/12 05:23:46;;;;;;;16.60;11.68;;;21.20;92.70;;;;;;5056049;28;20038;-78
2023/09/12 05:26:11;;;;;;;15.63;10.75;;;21.20;92.80;;;;;;5055893;28;20120;-78
2023/09/12 05:28:37;;;;;;;18.10;11.43;;;21.20;92.80;;;;;;5054929;28;20017;-78
2023/09/12 05:31:03;;;;;;;15.85;10.70;;;21.30;92.80;;;;;;5038255;28;20042;-78
2023/09/12 05:33:28;;;;;;;19.98;11.80;;;21.30;92.80;;;;;;5054903;28;20025;-79
2023/09/12 05:35:54;;;;;;;17.77;11.02;;;21.40;92.70;;;;;;5055715;28;20052;-79
2023/09/12 05:38:20;;;;;;;19.45;11.55;;;21.40;92.70;;;;;;5054981;28;20028;-78
2023/09/12 05:40:46;;;;;;;18.90;12.40;;;21.40;92.70;;;;;;5038067;28;20033;-78
2023/09/12 05:43:11;;;;;;;23.95;13.40;;;21.40;92.70;;;;;;5054768;28;20093;-78
2023/09/12 05:45:37;;;;;;;21.00;12.95;;;21.40;92.70;;;;;;5054640;28;20029;-78
2023/09/12 05:48:04;;;;;;;19.75;11.88;;;21.40;92.80;;;;;;5054589;28;20030;-78
2023/09/12 05:50:30;;;;;;;20.52;12.57;;;21.40;92.80;;;;;;5055617;28;20018;-79
2023/09/12 05:52:55;;;;;;;21.50;12.77;;;21.40;92.80;;;;;;5054498;28;20040;-79
2023/09/12 05:55:21;;;;;;;21.45;12.77;;;21.40;92.80;;;;;;5054492;28;20052;-79
2023/09/12 05:57:52;;;;;;;22.00;13.48;;;21.40;92.90;;;;;;5054417;28;20025;-78
2023/09/12 06:00:18;;;;;;;20.95;13.20;;;21.40;92.90;;;;;;5054366;28;20404;-79
2023/09/12 06:02:43;;;;;;;23.13;13.07;;;21.40;92.90;;;;;;5054267;28;20100;-78
2023/09/12 06:05:09;;;;;;;21.10;13.05;;;21.40;92.90;;;;;;5037724;28;20029;-79
2023/09/12 06:07:35;;;;;;;22.40;14.10;;;21.40;92.90;;;;;;5054259;28;20033;-80
2023/09/12 06:10:01;;;;;;;22.45;14.27;;;21.40;93.00;;;;;;5054031;28;20493;-80
2023/09/12 06:12:27;;;;;;;23.17;13.73;;;21.40;92.80;;;;;;5037506;28;20060;-80
2023/09/12 06:14:55;;;;;;;24.95;13.55;;;21.40;93.00;;;;;;5054062;28;20048;-79
2023/09/12 06:17:21;;;;;;;22.33;13.63;;;21.30;93.40;;;;;;5054074;28;20026;-78
2023/09/12 06:19:49;;;;;;;23.98;14.27;;;21.30;93.10;;;;;;5054932;28;20026;-79
2023/09/12 06:22:17;;;;;;;22.70;14.35;;;21.30;93.30;;;;;;5037357;28;20049;-79
2023/09/12 06:24:43;;;;;;;25.40;15.07;;;21.30;93.40;;;;;;5054863;28;20085;-80
2023/09/12 06:27:08;;;;;;;28.45;16.08;;;21.40;93.40;;;;;;5054755;28;20033;-79
2023/09/12 06:29:34;;;;;;;25.55;14.80;;;21.30;93.60;;;;;;5054443;28;20081;-80
2023/09/12 06:31:59;;;;;;;26.83;14.60;;;21.30;93.70;;;;;;5053654;28;20049;-80
2023/09/12 06:34:27;;;;;;;24.33;15.38;;;21.30;93.80;;;;;;5053668;28;20068;-80
2023/09/12 06:36:52;;;;;;;25.55;14.50;;;21.40;93.70;;;;;;5054756;28;20038;-80
2023/09/12 06:39:18;;;;;;;26.45;15.40;;;21.40;93.60;;;;;;5053631;28;20040;-79
2023/09/12 06:41:43;;;;;;;27.63;15.73;;;21.50;93.70;;;;;;5054495;28;20052;-79
2023/09/12 06:44:09;;;;;;;26.15;14.88;;;21.50;93.60;;;;;;5036984;28;20061;-79
2023/09/12 06:46:37;;;;;;;26.85;15.95;;;21.50;93.50;;;;;;5053518;28;20025;-79
2023/09/12 06:49:03;;;;;;;24.02;15.30;;;21.50;93.50;;;;;;5054546;28;20029;-80
2023/09/12 06:51:28;;;;;;;30.17;16.48;;;21.60;93.50;;;;;;5053306;28;20025;-79
2023/09/12 06:53:54;;;;;;;29.90;16.33;;;21.50;93.60;;;;;;5053149;28;20029;-79
2023/09/12 06:56:21;;;;;;;29.77;16.35;;;21.50;93.70;;;;;;5053416;28;20041;-79
2023/09/12 06:58:47;;;;;;;30.30;16.67;;;21.60;93.50;;;;;;5053149;28;20036;-79
2023/09/12 07:01:13;;;;;;;31.92;16.83;;;21.60;93.60;;;;;;5053167;28;20097;-79
2023/09/12 07:03:39;;;;;;;31.40;18.30;;;21.60;93.70;;;;;;5053040;28;20041;-79
2023/09/12 07:06:05;;;;;;;33.50;17.98;;;21.60;93.70;;;;;;5053071;28;20032;-78
2023/09/12 07:08:31;;;;;;;30.60;18.40;;;21.60;93.80;;;;;;5036585;28;20022;-79
2023/09/12 07:10:58;;;;;;;33.97;19.20;;;21.60;93.90;;;;;;5052848;28;20030;-79
2023/09/12 07:13:24;;;;;;;36.15;20.80;;;21.60;93.90;;;;;;5053012;28;20031;-79
2023/09/12 07:15:50;;;;;;;39.15;22.40;;;21.70;94.00;;;;;;5052967;28;20040;-78
2023/09/12 07:18:16;;;;;;;41.10;22.27;;;21.70;94.00;;;;;;5053005;28;20032;-79
2023/09/12 07:20:42;;;;;;;39.20;22.73;;;21.70;93.90;;;;;;5036251;28;20021;-79
2023/09/12 07:23:08;;;;;;;36.83;20.75;;;21.60;93.80;;;;;;5036137;28;20064;-80
2023/09/12 07:25:41;;;;;;;40.80;22.40;;;21.60;93.90;;;;;;5053716;28;20030;-79
2023/09/12 07:28:08;;;;;;;39.28;21.02;;;21.60;94.10;;;;;;5052686;28;20021;-79
2023/09/12 07:30:33;;;;;;;39.92;22.38;;;21.50;94.30;;;;;;5052605;28;20060;-79
2023/09/12 07:32:59;;;;;;;40.72;21.40;;;21.60;94.40;;;;;;5053657;28;20037;-79
2023/09/12 07:35:25;;;;;;;35.20;20.67;;;21.60;94.30;;;;;;5036061;28;20029;-79
2023/09/12 07:37:51;;;;;;;37.58;20.05;;;21.70;94.30;;;;;;5052586;28;20029;-79
2023/09/12 07:40:16;;;;;;;35.97;20.48;;;21.70;94.40;;;;;;5053394;28;20073;-80
2023/09/12 07:42:42;;;;;;;34.72;19.92;;;21.70;94.00;;;;;;5052041;28;20052;-80
2023/09/12 07:45:08;;;;;;;38.05;20.95;;;21.60;94.10;;;;;;5052434;28;20030;-79
2023/09/12 07:47:34;;;;;;;35.53;20.95;;;21.60;94.10;;;;;;5052401;28;20119;-80
2023/09/12 07:50:03;;;;;;;38.95;21.20;;;21.70;94.20;;;;;;5053373;28;20037;-80
2023/09/12 07:52:29;;;;;;;37.35;20.25;;;21.80;94.10;;;;;;5053244;28;20085;-80
2023/09/12 07:55:02;;;;;;;37.90;20.90;;;21.80;93.90;;;;;;5053276;28;20048;-80
2023/09/12 07:57:29;;;;;;;36.78;19.77;;;21.80;93.70;;;;;;5052370;28;20081;-80
2023/09/12 07:59:55;;;;;;;40.35;21.45;;;21.80;93.80;;;;;;5052264;28;20021;-79
2023/09/12 08:02:20;;;;;;;39.67;22.00;;;21.90;93.90;;;;;;5052202;28;20038;-80
2023/09/12 08:04:46;;;;;;;39.08;22.30;;;22.00;93.90;;;;;;5035748;28;20037;-80
2023/09/12 08:07:12;;;;;;;43.88;24.52;;;22.00;93.80;;;;;;5035678;28;20021;-80
2023/09/12 08:09:55;;;;;;;44.78;24.48;;;22.00;93.70;;;;;;5053145;28;20081;-80
2023/09/12 08:12:23;;;;;;;43.10;25.33;;;22.00;93.80;;;;;;5052044;28;20026;-80
2023/09/12 08:14:48;;;;;;;41.88;23.65;;;22.00;94.00;;;;;;5051986;28;20040;-80
2023/09/12 08:17:15;;;;;;;43.13;22.33;;;22.10;94.10;;;;;;5052034;28;20544;-79
2023/09/12 08:19:41;;;;;;;42.63;23.85;;;22.10;94.00;;;;;;5051937;28;20055;-79
2023/09/12 08:22:08;;;;;;;41.65;21.95;;;22.20;94.00;;;;;;5051839;28;20050;-80
2023/09/12 08:24:34;;;;;;;43.33;23.25;;;22.20;94.00;;;;;;5052006;28;20540;-79
2023/09/12 08:27:01;;;;;;;44.75;22.30;;;22.20;94.10;;;;;;5052943;28;20056;-79
2023/09/12 08:29:28;;;;;;;40.78;22.02;;;22.30;94.20;;;;;;5051988;28;20022;-79
2023/09/12 08:31:54;;;;;;;41.92;20.88;;;22.30;94.10;;;;;;5051916;28;20492;-80
2023/09/12 08:34:20;;;;;;;41.25;20.70;;;22.30;93.80;;;;;;5035347;28;20036;-80
2023/09/12 08:36:47;;;;;;;41.25;22.05;;;22.30;93.80;;;;;;5051919;28;20021;-80
2023/09/12 08:39:15;;;;;;;41.00;21.30;;;22.40;93.80;;;;;;5052863;28;20017;-80
2023/09/12 08:41:47;;;;;;;34.90;18.95;;;22.50;93.60;;;;;;5052823;28;20029;-80
2023/09/12 08:44:14;;;;;;;31.35;17.63;;;22.50;93.30;;;;;;5035793;28;20093;-80
2023/09/12 08:46:42;;;;;;;33.20;18.77;;;22.50;93.20;;;;;;5051765;28;20030;-80
2023/09/12 08:49:09;;;;;;;35.25;19.85;;;22.60;93.20;;;;;;5052736;28;20029;-80
2023/09/12 08:51:35;;;;;;;33.50;19.00;;;22.70;93.30;;;;;;5051719;28;20044;-79
2023/09/12 08:54:03;;;;;;;32.15;18.92;;;22.70;93.10;;;;;;5038662;28;20026;-79
2023/09/12 08:56:30;;;;;;;32.97;18.27;;;22.70;92.70;;;;;;5056562;28;20018;-80
2023/09/12 08:58:58;;;;;;;31.08;17.73;;;22.70;92.60;;;;;;5056446;28;20022;-80
2023/09/12 09:01:27;;;;;;;33.00;18.65;;;22.80;92.70;;;;;;5039075;28;20096;-80
2023/09/12 09:03:53;;;;;;;35.15;19.33;;;22.80;92.80;;;;;;5039323;28;20021;-79
2023/09/12 09:06:21;;;;;;;35.15;19.02;;;22.70;92.50;;;;;;5038735;28;20033;-80
2023/09/12 09:08:49;;;;;;;32.35;19.58;;;22.70;92.10;;;;;;5056281;28;20022;-79
2023/09/12 09:11:14;;;;;;;32.70;18.73;;;22.70;92.30;;;;;;5055171;28;20120;-80
2023/09/12 09:13:40;;;;;;;32.50;18.17;;;22.90;92.50;;;;;;5056187;28;20033;-79
2023/09/12 09:16:10;;;;;;;30.48;17.80;;;23.00;92.40;;;;;;5038636;28;20167;-80
2023/09/12 09:18:59;;;;;;;27.27;16.85;;;23.00;92.20;;;;;;5056211;28;20077;-80
2023/09/12 09:21:27;;;;;;;30.77;16.92;;;23.10;92.20;;;;;;5038372;28;20026;-80
2023/09/12 09:23:54;;;;;;;29.15;15.25;;;23.30;92.20;;;;;;5055887;28;20045;-80
2023/09/12 09:26:20;;;;;;;22.48;14.70;;;23.30;92.20;;;;;;5055969;28;20060;-80
2023/09/12 09:28:46;;;;;;;24.35;13.48;;;23.20;91.80;;;;;;5054967;28;20507;-80
2023/09/12 09:31:13;;;;;;;22.45;13.45;;;23.10;91.30;;;;;;5055914;28;20030;-80
2023/09/12 09:33:51;;;;;;;21.90;13.18;;;23.00;91.50;;;;;;5054757;28;20380;-80
2023/09/12 09:36:16;;;;;;;24.60;13.93;;;23.00;91.40;;;;;;5039487;28;20097;-80
2023/09/12 09:38:43;;;;;;;25.15;14.40;;;23.10;91.70;;;;;;5054795;28;20036;-80
2023/09/12 09:41:09;;;;;;;23.27;14.27;;;23.20;91.90;;;;;;5054741;28;20026;-80
2023/09/12 09:43:34;;;;;;;24.73;14.18;;;23.40;91.70;;;;;;5055665;28;20116;-80
2023/09/12 09:46:00;;;;;;;21.20;13.48;;;23.50;91.80;;;;;;5038198;28;20017;-79
2023/09/12 09:48:32;;;;;;;23.95;13.27;;;23.60;91.40;;;;;;5038082;28;20021;-80
2023/09/12 09:51:03;;;;;;;24.15;13.57;;;23.80;90.70;;;;;;5054467;28;20031;-80
2023/09/12 09:53:29;;;;;;;21.48;12.95;;;23.90;90.70;;;;;;5037914;28;20021;-80
2023/09/12 09:56:12;;;;;;;22.92;12.20;;;23.90;89.90;;;;;;5054459;28;20025;-78
2023/09/12 09:58:50;;;;;;;;;;;24.00;90.00;;;;;;5038273;28;20063;-78
2023/09/12 10:01:20;;;;;;;21.35;12.57;;;24.00;89.80;;;;;;5055304;28;19905;-78
2023/09/12 10:03:50;;;;;;;19.95;10.93;;;24.00;90.00;;;;;;5053682;28;20105;-78
2023/09/12 10:06:17;;;;;;;23.00;11.80;;;24.10;89.30;;;;;;5054249;28;20026;-77
2023/09/12 10:08:45;;;;;;;20.23;12.35;;;24.10;88.70;;;;;;5054222;28;20018;-77
2023/09/12 10:11:17;;;;;;;19.80;12.05;;;24.20;88.30;;;;;;5055027;28;20028;-77
2023/09/12 10:13:52;;;;;;;18.02;9.38;;;24.20;89.10;;;;;;5037982;28;20028;-79
2023/09/12 10:16:20;;;;;;;15.45;8.90;;;24.40;89.10;;;;;;5054166;28;20029;-78
2023/09/12 10:19:10;;;;;;;18.40;9.88;;;24.60;88.20;;;;;;5053976;28;20021;-79
2023/09/12 10:21:40;;;;;;;18.58;10.02;;;24.70;85.10;;;;;;5054803;28;20085;-79
2023/09/12 10:24:07;;;;;;;18.55;10.50;;;24.80;86.20;;;;;;5053755;28;20068;-78
2023/09/12 10:26:34;;;;;;;14.68;8.98;;;24.90;86.20;;;;;;5054861;28;20096;-79
2023/09/12 10:29:02;;;;;;;14.32;8.45;;;25.00;85.30;;;;;;5053762;28;20467;-79
2023/09/12 10:31:28;;;;;;;15.10;8.00;;;25.00;84.50;;;;;;5054687;28;20045;-78
2023/09/12 10:33:54;;;;;;;14.07;7.15;;;24.90;82.50;;;;;;5054611;28;20092;-78
2023/09/12 10:36:21;;;;;;;13.07;7.35;;;24.90;82.40;;;;;;5053698;28;20029;-77
2023/09/12 10:38:48;;;;;;;11.93;6.75;;;24.90;81.80;;;;;;5037100;28;20028;-79
2023/09/12 10:41:15;;;;;;;10.98;6.30;;;24.90;82.00;;;;;;5054534;28;20037;-79
2023/09/12 10:43:42;;;;;;;14.85;8.95;;;25.00;82.40;;;;;;5037145;28;20025;-79
2023/09/12 10:46:09;;;;;;;13.95;8.32;;;25.20;82.50;;;;;;5054479;28;20022;-79
2023/09/12 10:48:40;;;;;;;18.60;10.80;;;25.30;82.90;;;;;;5054379;28;20020;-79
2023/09/12 10:51:07;;;;;;;16.10;9.13;;;25.40;82.10;;;;;;5054319;28;20014;-79
2023/09/12 10:53:36;;;;;;;18.58;8.77;;;25.30;82.10;;;;;;5053379;28;20091;-79
2023/09/12 10:56:23;;;;;;;16.50;9.73;;;25.40;81.80;;;;;;5053484;28;20025;-79
2023/09/12 10:59:04;;;;;;;16.75;8.23;;;25.50;82.20;;;;;;5053415;28;20025;-79
2023/09/12 11:01:34;;;;;;;18.85;9.35;;;25.60;82.40;;;;;;5054290;28;20033;-80
2023/09/12 11:04:18;;;;;;;13.82;7.63;;;25.80;82.10;;;;;;5054062;28;20025;-80
2023/09/12 11:06:45;;;;;;;15.50;8.10;;;25.90;82.00;;;;;;5053047;28;20082;-80
2023/09/12 11:09:17;;;;;;;16.90;9.55;;;26.00;81.10;;;;;;5053114;28;20033;-79
2023/09/12 11:11:46;;;;;;;;;;;26.20;80.70;;;;;;5054462;28;20030;-79
2023/09/12 11:14:12;;;;;;;13.00;8.38;;;26.20;80.90;;;;;;5053908;28;19909;-80
2023/09/12 11:16:39;;;;;;;15.32;8.57;;;26.20;80.50;;;;;;5051911;28;20033;-79
2023/09/12 11:19:23;;;;;;;14.80;9.05;;;26.20;81.20;;;;;;5053809;28;20056;-79
2023/09/12 11:21:53;;;;;;;13.57;7.80;;;26.30;80.90;;;;;;5052619;28;20048;-80
2023/09/12 11:24:20;;;;;;;16.50;9.02;;;26.40;79.90;;;;;;5053805;28;20026;-80
2023/09/12 11:27:07;;;;;;;15.75;8.38;;;26.30;78.70;;;;;;5036257;28;20029;-80
2023/09/12 11:29:38;;;;;;;11.98;7.15;;;26.30;80.00;;;;;;5053749;28;20025;-80
2023/09/12 11:32:06;;;;;;;14.30;7.82;;;26.20;79.00;;;;;;5052516;28;20064;-79
2023/09/12 11:34:40;;;;;;;14.77;7.57;;;26.30;79.80;;;;;;5052699;28;20057;-79
2023/09/12 11:37:06;;;;;;;12.45;7.15;;;26.30;79.10;;;;;;5052469;28;20022;-79
2023/09/12 11:39:37;;;;;;;10.80;6.90;;;26.30;78.50;;;;;;5052580;28;20022;-79
2023/09/12 11:42:04;;;;;;;11.40;7.10;;;26.30;78.70;;;;;;5036001;28;20044;-79
2023/09/12 11:44:31;;;;;;;9.82;5.97;;;26.30;78.50;;;;;;5052675;28;20029;-80
2023/09/12 11:47:05;;;;;;;10.05;6.35;;;26.30;78.20;;;;;;5053412;28;20034;-79
2023/09/12 11:49:39;;;;;;;11.93;7.45;;;26.30;77.70;;;;;;5037095;28;20061;-80
2023/09/12 11:52:10;;;;;;;10.27;5.75;;;26.30;77.20;;;;;;5052313;28;20029;-80
2023/09/12 11:54:35;;;;;;;14.70;6.13;;;26.20;76.90;;;;;;5052390;28;20025;-79
2023/09/12 11:57:02;;;;;;;10.15;5.50;;;26.00;76.10;;;;;;5035866;28;20018;-79
2023/09/12 11:59:29;;;;;;;9.15;5.10;;;25.90;76.20;;;;;;5035722;28;20029;-80
2023/09/12 12:01:55;;;;;;;8.57;5.57;;;25.80;76.80;;;;;;5052164;28;20021;-80
2023/09/12 12:04:23;;;;;;;9.60;5.03;;;25.80;77.10;;;;;;5052188;28;20037;-80
2023/09/12 12:06:51;;;;;;;6.43;4.20;;;25.80;77.70;;;;;;5035674;28;20033;-80
2023/09/12 12:09:21;;;;;;;7.47;4.43;;;25.80;78.00;;;;;;5053107;28;20029;-80
2023/09/12 12:11:47;;;;;;;7.82;4.40;;;25.80;78.10;;;;;;5052153;28;20014;-81
2023/09/12 12:14:16;;;;;;;6.72;4.55;;;25.80;76.30;;;;;;5052094;28;20056;-80
2023/09/12 12:16:43;;;;;;;9.18;5.43;;;25.80;75.60;;;;;;5053146;28;20033;-80
2023/09/12 12:19:14;;;;;;;7.75;4.57;;;25.80;75.40;;;;;;5035652;28;20032;-79
2023/09/12 12:21:40;;;;;;;8.80;5.07;;;25.90;76.30;;;;;;5052050;28;20057;-79
2023/09/12 12:24:10;;;;;;;7.93;5.15;;;26.20;77.50;;;;;;5052872;28;20050;-80
2023/09/12 12:26:35;;;;;;;7.93;4.78;;;26.40;77.30;;;;;;5052931;28;20029;-79
2023/09/12 12:29:02;;;;;;;8.63;5.13;;;26.50;77.30;;;;;;5055660;28;20025;-80
2023/09/12 12:31:28;;;;;;;9.90;6.15;;;26.80;77.20;;;;;;5056918;28;20030;-79